createdAt,value
2022-11-02T00:01:58.588Z,100398.27
2022-11-02T00:04:25.423Z,100400.00
2022-11-02T00:06:52.205Z,100392.89
2022-11-02T00:09:19.183Z,100388.55
2022-11-02T00:11:45.839Z,100382.98
2022-11-02T00:14:12.492Z,100376.63
2022-11-02T00:16:39.942Z,100370.88
2022-11-02T00:19:06.590Z,100369.20
2022-11-02T00:21:33.245Z,100366.96
2022-11-02T00:24:00.106Z,100361.45
2022-11-02T00:26:27.322Z,100355.27
2022-11-02T00:28:54.175Z,100352.20
2022-11-02T00:31:20.840Z,100344.09
2022-11-02T00:33:47.598Z,100346.58
2022-11-02T00:36:14.252Z,100344.98
2022-11-02T00:38:40.890Z,100346.10
2022-11-02T00:41:07.843Z,100339.94
2022-11-02T00:43:34.457Z,100341.95
2022-11-02T00:46:01.586Z,100338.95
2022-11-02T00:48:28.436Z,100333.53
2022-11-02T00:50:55.345Z,100334.34
2022-11-02T00:53:22.879Z,100332.15
2022-11-02T00:55:53.957Z,100330.52
2022-11-02T00:58:20.955Z,100326.31
2022-11-02T01:00:49.215Z,100324.61
2022-11-02T01:03:15.972Z,100321.75
2022-11-02T01:05:42.638Z,100323.52
2022-11-02T01:08:09.684Z,100328.57
2022-11-02T01:10:36.319Z,100332.93
2022-11-02T01:13:03.000Z,100331.19
2022-11-02T01:15:29.675Z,100329.90
2022-11-02T01:17:56.440Z,100333.29
2022-11-02T01:20:23.094Z,100330.23
2022-11-02T01:22:50.167Z,100328.21
2022-11-02T01:25:18.137Z,100329.53
2022-11-02T01:27:44.827Z,100331.79
2022-11-02T01:30:12.405Z,100335.80
2022-11-02T01:32:39.268Z,100332.17
2022-11-02T01:35:06.052Z,100328.16
2022-11-02T01:37:32.698Z,100323.58
2022-11-02T01:39:59.382Z,100323.73
2022-11-02T01:42:27.951Z,100319.11
2022-11-02T01:44:55.856Z,100318.11
2022-11-02T01:47:24.460Z,100318.16
2022-11-02T01:50:03.066Z,100316.81
2022-11-02T01:52:34.443Z,100314.30
2022-11-02T01:55:22.652Z,100315.61
2022-11-02T01:58:02.275Z,100312.45
2022-11-02T02:00:29.283Z,100314.27
2022-11-02T02:03:01.002Z,100313.15
2022-11-02T02:05:27.729Z,100313.41
2022-11-02T02:07:54.787Z,100315.19
2022-11-02T02:10:21.497Z,100314.00
2022-11-02T02:12:48.818Z,100312.14
2022-11-02T02:15:19.735Z,100303.04
2022-11-02T02:18:02.605Z,100302.96
2022-11-02T02:20:44.947Z,100299.83
2022-11-02T02:23:57.940Z,100295.67
2022-11-02T02:27:19.341Z,100296.32
2022-11-02T02:29:47.740Z,100289.33
2022-11-02T02:32:17.182Z,100287.31
2022-11-02T02:34:51.937Z,100291.86
2022-11-02T02:37:44.628Z,100288.58
2022-11-02T02:40:30.627Z,100281.96
2022-11-02T02:43:08.473Z,100274.55
2022-11-02T02:45:47.342Z,100270.39
2022-11-02T02:48:24.711Z,100270.41
2022-11-02T02:50:52.027Z,100272.27
2022-11-02T02:53:22.728Z,100273.38
2022-11-02T02:55:49.757Z,100266.25
2022-11-02T02:58:21.420Z,100270.51
2022-11-02T03:00:48.082Z,100268.53
2022-11-02T03:03:20.086Z,100272.20
2022-11-02T03:05:59.004Z,100273.65
2022-11-02T03:08:25.827Z,100280.29
2022-11-02T03:11:01.610Z,100275.98
2022-11-02T03:13:41.120Z,100284.76
2022-11-02T03:16:15.508Z,100283.69
2022-11-02T03:18:50.273Z,100281.31
2022-11-02T03:21:29.726Z,100284.98
2022-11-02T03:24:02.514Z,100286.01
2022-11-02T03:26:47.679Z,100281.52
2022-11-02T03:29:18.762Z,100284.55
2022-11-02T03:31:47.858Z,100286.41
2022-11-02T03:34:37.951Z,100282.84
2022-11-02T03:37:11.667Z,100281.60
2022-11-02T03:39:44.349Z,100280.14
2022-11-02T03:42:14.089Z,100279.80
2022-11-02T03:44:40.802Z,100278.95
2022-11-02T03:47:11.053Z,100277.04
2022-11-02T03:49:37.866Z,100276.73
2022-11-02T03:52:05.874Z,100272.21
2022-11-02T03:54:54.347Z,100266.66
2022-11-02T03:57:28.674Z,100262.40
2022-11-02T04:00:07.265Z,100259.19
2022-11-02T04:02:41.657Z,100258.36
2022-11-02T04:05:08.811Z,100260.05
2022-11-02T04:07:58.491Z,100261.29
2022-11-02T04:10:27.229Z,100260.65
2022-11-02T04:13:12.759Z,100263.86
2022-11-02T04:15:39.455Z,100264.78
2022-11-02T04:18:24.945Z,100261.70
2022-11-02T04:20:51.844Z,100264.54
2022-11-02T04:23:37.406Z,100261.34
2022-11-02T04:26:05.407Z,100253.96
2022-11-02T04:28:39.311Z,100255.20
2022-11-02T04:31:06.556Z,100245.81
2022-11-02T04:33:36.806Z,100244.17
2022-11-02T04:36:07.254Z,100246.85
2022-11-02T04:38:40.357Z,100244.34
2022-11-02T04:41:33.361Z,100254.56
2022-11-02T04:44:00.617Z,100248.89
2022-11-02T04:46:29.008Z,100252.46
2022-11-02T04:48:55.934Z,100249.49
2022-11-02T04:51:23.536Z,100249.52
2022-11-02T04:53:51.536Z,100254.99
2022-11-02T04:56:18.843Z,100249.69
2022-11-02T04:58:50.593Z,100248.70
2022-11-02T05:01:17.874Z,100238.38
2022-11-02T05:03:46.800Z,100233.40
2022-11-02T05:06:13.502Z,100221.30
2022-11-02T05:08:40.335Z,100220.27
2022-11-02T05:11:06.987Z,100217.45
2022-11-02T05:13:33.645Z,100216.80
2022-11-02T05:16:01.332Z,100216.10
2022-11-02T05:18:29.079Z,100216.67
2022-11-02T05:20:57.352Z,100216.29
2022-11-02T05:23:25.003Z,100219.41
2022-11-02T05:26:03.144Z,100215.76
2022-11-02T05:28:30.529Z,100218.34
2022-11-02T05:30:58.779Z,100218.73
2022-11-02T05:33:30.257Z,100217.64
2022-11-02T05:35:58.986Z,100219.86
2022-11-02T05:38:26.701Z,100215.38
2022-11-02T05:40:54.900Z,100211.64
2022-11-02T05:43:22.359Z,100212.49
2022-11-02T05:45:54.181Z,100211.33
2022-11-02T05:48:20.943Z,100215.30
2022-11-02T05:50:47.923Z,100215.91
2022-11-02T11:01:20.122Z,100165.17
2022-11-02T11:03:55.285Z,100163.48
2022-11-02T11:06:23.364Z,100164.73
2022-11-02T11:08:52.008Z,100166.14
2022-11-02T11:11:22.789Z,100166.23
2022-11-02T11:19:50.863Z,100152.45
2022-11-02T11:22:27.758Z,100152.37
2022-11-02T11:25:13.194Z,100157.31
2022-11-02T11:27:47.651Z,100155.49
2022-11-02T11:33:26.150Z,100147.95
2022-11-02T11:35:53.059Z,100142.94
2022-11-02T11:38:24.269Z,100143.63
2022-11-02T11:40:56.034Z,100144.11
2022-11-02T11:43:25.168Z,100142.88
2022-11-02T11:46:05.358Z,100141.71
2022-11-02T11:48:50.590Z,100137.61
2022-11-02T11:51:39.662Z,100142.31
2022-11-02T11:54:29.791Z,100144.80
2022-11-02T11:57:23.625Z,100146.87
2022-11-02T11:59:54.894Z,100154.77
2022-11-02T12:02:27.791Z,100153.73
2022-11-02T12:04:59.445Z,100156.66
2022-11-02T12:07:40.381Z,100156.48
2022-11-02T12:10:13.796Z,100158.83
2022-11-02T12:13:18.449Z,100161.00
2022-11-02T12:16:07.635Z,100160.30
2022-11-02T12:18:47.955Z,100162.83
2022-11-02T12:21:37.637Z,100162.98
2022-11-02T12:24:23.682Z,100163.45
2022-11-02T12:27:21.519Z,100162.99
2022-11-02T12:30:10.538Z,100162.75
2022-11-02T12:33:10.936Z,100161.07
2022-11-02T12:35:56.424Z,100161.61
2022-11-02T12:39:17.130Z,100167.85
2022-11-02T12:41:54.472Z,100170.09
2022-11-02T12:44:47.334Z,100170.76
2022-11-02T12:47:37.373Z,100169.15
2022-11-02T12:50:08.644Z,100176.32
2022-11-02T12:52:46.226Z,100179.00
2022-11-02T12:55:17.381Z,100178.95
2022-11-02T12:57:44.742Z,100176.09
2022-11-02T13:00:21.830Z,100178.44
2022-11-02T13:03:16.147Z,100180.52
2022-11-02T13:05:45.206Z,100182.55
2022-11-02T13:08:15.272Z,100181.98
2022-11-02T13:10:53.144Z,100183.25
2022-11-02T13:13:42.301Z,100187.82
2022-11-02T13:16:09.472Z,100193.38
2022-11-02T13:18:53.455Z,100194.36
2022-11-02T13:21:27.639Z,100196.67
2022-11-02T13:23:56.481Z,100197.52
2022-11-02T13:26:32.680Z,100200.56
2022-11-02T13:29:19.805Z,100205.19
2022-11-02T13:31:55.571Z,100205.36
2022-11-02T13:34:44.123Z,100210.28
2022-11-02T13:37:21.196Z,100212.23
2022-11-02T13:39:53.025Z,100210.58
2022-11-02T13:42:39.293Z,100213.75
2022-11-02T13:45:27.636Z,100212.24
2022-11-02T13:48:25.468Z,100213.48
2022-11-02T13:50:53.694Z,100216.02
2022-11-02T13:53:25.886Z,100219.48
2022-11-02T13:56:00.093Z,100220.90
2022-11-02T13:58:30.707Z,100215.70
2022-11-02T14:01:09.193Z,100215.23
2022-11-02T14:04:08.042Z,100213.42
2022-11-02T14:06:44.898Z,100213.41
2022-11-02T14:09:11.523Z,100215.94
2022-11-02T14:11:41.375Z,100214.02
2022-11-02T14:14:11.030Z,100210.09
2022-11-02T14:16:47.067Z,100207.46
2022-11-02T14:19:19.328Z,100208.32
2022-11-02T14:21:53.376Z,100209.18
2022-11-02T14:24:32.362Z,100202.97
2022-11-02T14:27:06.135Z,100201.07
2022-11-02T14:29:42.287Z,100201.84
2022-11-02T14:32:58.718Z,100208.83
2022-11-02T14:35:29.246Z,100217.73
2022-11-02T14:38:03.503Z,100221.86
2022-11-02T14:40:36.425Z,100221.73
2022-11-02T14:43:25.114Z,100223.81
2022-11-02T14:46:16.691Z,100225.24
2022-11-02T14:49:01.845Z,100226.36
2022-11-02T14:51:37.291Z,100224.42
2022-11-02T14:54:07.994Z,100229.64
2022-11-02T14:56:55.707Z,100226.52
2022-11-02T14:59:38.613Z,100232.67
2022-11-02T15:02:28.533Z,100237.40
2022-11-02T15:04:59.050Z,100241.23
2022-11-02T15:07:37.697Z,100242.95
2022-11-02T15:10:30.968Z,100244.90
2022-11-02T15:13:19.585Z,100248.97
2022-11-02T15:15:55.407Z,100251.29
2022-11-02T15:18:31.254Z,100251.89
2022-11-02T15:21:10.385Z,100251.40
2022-11-02T15:23:46.887Z,100257.78
2022-11-02T15:26:16.867Z,100265.84
2022-11-02T15:28:43.760Z,100265.77
2022-11-02T15:31:24.705Z,100269.63
2022-11-02T15:33:54.886Z,100268.55
2022-11-02T15:36:32.462Z,100270.60
2022-11-02T15:38:59.228Z,100276.86
2022-11-02T15:41:42.325Z,100278.23
2022-11-02T15:44:34.022Z,100284.91
2022-11-02T18:55:32.646Z,100399.29
2022-11-02T18:57:59.666Z,100401.67
2022-11-02T19:00:26.553Z,100402.38
2022-11-02T19:02:53.392Z,100402.70
2022-11-02T19:05:38.812Z,100399.41
2022-11-02T19:08:24.133Z,100405.98
2022-11-02T19:10:50.923Z,100407.00
2022-11-02T19:13:17.847Z,100407.89
2022-11-02T19:15:44.605Z,100405.96
2022-11-02T19:18:11.275Z,100405.98
2022-11-02T19:20:38.239Z,100408.02
2022-11-02T19:23:05.073Z,100409.17
2022-11-02T19:25:31.750Z,100411.45
2022-11-02T19:27:59.059Z,100413.78
2022-11-02T19:30:25.763Z,100412.06
2022-11-02T19:32:52.635Z,100418.81
2022-11-02T19:35:19.375Z,100421.39
2022-11-02T19:37:46.013Z,100424.16
2022-11-02T19:40:13.064Z,100428.75
2022-11-02T19:42:40.124Z,100432.31
2022-11-02T19:45:07.118Z,100435.71
2022-11-02T19:47:34.289Z,100433.95
2022-11-02T19:50:01.075Z,100431.33
2022-11-02T19:52:31.786Z,100434.46
2022-11-02T19:54:59.027Z,100437.63
2022-11-02T19:57:30.689Z,100435.91
2022-11-02T20:00:00.756Z,100432.39
2022-11-02T20:02:30.244Z,100431.36
2022-11-02T20:04:59.916Z,100431.34
2022-11-02T20:07:27.139Z,100431.75
2022-11-02T20:09:57.162Z,100431.48
2022-11-02T20:12:26.351Z,100429.92
2022-11-02T20:14:53.178Z,100430.31
2022-11-02T20:17:51.996Z,100431.30
2022-11-02T20:20:07.369Z,100434.48
2022-11-02T20:22:35.174Z,100434.24
2022-11-02T20:25:03.619Z,100434.04
2022-11-02T20:27:40.607Z,100433.02
2022-11-02T20:30:08.654Z,100435.55
2022-11-02T20:32:35.524Z,100438.34
2022-11-02T20:35:02.290Z,100435.20
2022-11-02T20:37:29.165Z,100436.58
2022-11-02T20:39:55.938Z,100440.09
2022-11-02T20:42:23.124Z,100440.38
2022-11-02T20:44:49.862Z,100440.38
2022-11-02T20:47:16.502Z,100441.19
2022-11-02T20:49:51.372Z,100439.70
2022-11-02T20:52:19.048Z,100440.91
2022-11-02T20:54:45.700Z,100437.79
2022-11-02T20:57:12.411Z,100441.98
2022-11-02T20:59:39.166Z,100442.41
2022-11-02T21:02:05.892Z,100442.14
2022-11-02T21:04:32.662Z,100443.05
2022-11-02T21:06:59.393Z,100443.16
2022-11-02T21:09:26.598Z,100443.67
2022-11-02T21:12:11.994Z,100444.70
2022-11-02T21:14:39.150Z,100447.30
2022-11-02T21:17:06.727Z,100445.55
2022-11-02T21:19:33.460Z,100443.10
2022-11-02T21:22:00.686Z,100437.79
2022-11-02T21:24:28.455Z,100438.79
2022-11-02T21:26:55.131Z,100438.59
2022-11-02T21:29:21.926Z,100436.05
2022-11-02T21:31:49.141Z,100435.05
2022-11-02T21:34:16.083Z,100430.86
2022-11-02T21:36:42.780Z,100427.60
2022-11-02T21:39:09.468Z,100427.16
2022-11-02T21:41:38.679Z,100426.17
2022-11-02T21:44:06.937Z,100428.59
2022-11-02T21:46:33.696Z,100422.59
2022-11-02T21:49:00.410Z,100421.17
2022-11-02T21:51:27.305Z,100420.15
2022-11-02T21:53:54.513Z,100413.45
2022-11-02T21:56:25.771Z,100409.77
2022-11-02T21:58:53.348Z,100406.80
2022-11-02T22:01:43.421Z,100413.08
2022-11-02T22:04:24.964Z,100420.55
2022-11-02T22:06:51.950Z,100423.27
2022-11-02T22:09:18.779Z,100436.09
2022-11-02T22:11:45.458Z,100430.77
2022-11-02T22:14:12.323Z,100436.42
2022-11-02T22:16:40.666Z,100441.05
2022-11-02T22:19:11.822Z,100440.74
2022-11-02T22:21:43.460Z,100440.16
2022-11-02T22:24:10.459Z,100442.45
2022-11-02T22:26:37.667Z,100439.92
2022-11-02T22:29:04.979Z,100439.49
2022-11-02T22:31:33.384Z,100443.68
2022-11-02T22:34:02.162Z,100441.97
2022-11-02T22:36:29.916Z,100435.20
2022-11-02T22:38:57.467Z,100434.11
2022-11-02T22:41:24.996Z,100434.22
2022-11-02T22:43:53.486Z,100430.49
2022-11-02T22:46:20.392Z,100427.09
2022-11-02T22:48:47.091Z,100424.25
2022-11-02T22:51:14.155Z,100419.94
2022-11-02T22:53:40.813Z,100422.14
2022-11-02T22:56:12.136Z,100431.70
2022-11-02T22:58:39.796Z,100432.58
2022-11-02T23:01:07.091Z,100425.55
2022-11-02T23:03:34.301Z,100421.29
2022-11-02T23:06:01.212Z,100421.05
2022-11-02T23:08:28.500Z,100421.67
2022-11-02T23:11:14.916Z,100416.02
2022-11-02T23:13:41.773Z,100422.73
2022-11-02T23:16:23.632Z,100438.55
2022-11-02T23:19:14.250Z,100439.35
2022-11-02T23:21:43.094Z,100441.27
2022-11-02T23:24:28.474Z,100440.54
2022-11-02T23:26:55.346Z,100435.88
2022-11-02T23:29:40.701Z,100437.76
2022-11-02T23:32:27.570Z,100442.86
2022-11-02T23:35:13.978Z,100447.95
2022-11-02T23:37:40.734Z,100451.98
2022-11-02T23:40:07.973Z,100452.35
2022-11-02T23:42:34.777Z,100446.65
2022-11-02T23:45:01.529Z,100446.27
2022-11-02T23:47:48.190Z,100445.77
2022-11-02T23:50:35.560Z,100448.40
2022-11-02T23:53:22.044Z,100450.98
2022-11-02T23:56:07.735Z,100446.52
2022-11-02T23:58:34.484Z,100441.18
